createdAt,value
2022-10-26T00:00:48.055Z,8.44
2022-10-26T00:03:17.868Z,8.54
2022-10-26T00:05:46.204Z,8.47
2022-10-26T00:08:12.983Z,8.49
2022-10-26T00:10:40.617Z,8.29
2022-10-26T00:13:09.871Z,8.13
2022-10-26T00:15:41.335Z,8.02
2022-10-26T00:18:08.679Z,7.99
2022-10-26T00:23:15.466Z,7.93
2022-10-26T00:25:42.942Z,7.92
2022-10-26T00:28:10.888Z,7.93
2022-10-26T00:30:41.596Z,8.08
2022-10-26T00:33:11.235Z,7.97
2022-10-26T00:35:46.030Z,7.99
2022-10-26T00:40:55.575Z,8.11
2022-10-26T00:43:29.926Z,8.23
2022-10-26T00:45:57.902Z,8.30
2022-10-26T00:48:29.691Z,8.39
2022-10-26T00:53:37.852Z,8.52
2022-10-26T00:56:05.203Z,8.52
2022-10-26T01:01:12.759Z,8.51
2022-10-26T01:03:39.678Z,8.49
2022-10-26T01:08:52.657Z,8.77
2022-10-26T01:11:19.297Z,8.80
2022-10-26T01:16:45.267Z,8.79
2022-10-26T01:19:24.716Z,8.79
2022-10-26T01:24:51.067Z,9.01
2022-10-26T01:27:32.094Z,8.91
2022-10-26T01:29:58.687Z,8.93
2022-10-26T01:32:25.248Z,9.00
2022-10-26T01:34:54.403Z,8.94
2022-10-26T01:37:25.263Z,9.15
2022-10-26T01:39:58.635Z,9.16
2022-10-26T01:42:25.619Z,9.12
2022-10-26T01:45:02.574Z,9.48
2022-10-26T01:47:32.662Z,9.48
2022-10-26T01:52:47.531Z,9.64
2022-10-26T02:04:32.084Z,9.59
2022-10-26T02:07:19.471Z,9.46
2022-10-26T02:12:59.431Z,9.34
2022-10-26T02:15:31.312Z,9.38
2022-10-26T02:20:45.701Z,9.25
2022-10-26T02:23:20.660Z,9.19
2022-10-26T02:25:51.294Z,9.21
2022-10-26T02:28:22.304Z,9.15
2022-10-26T02:30:50.831Z,9.09
2022-10-26T02:33:17.764Z,8.97
2022-10-26T02:35:47.582Z,8.98
2022-10-26T02:38:18.663Z,8.85
2022-10-26T02:40:46.638Z,8.80
2022-10-26T02:43:17.858Z,8.77
2022-10-26T02:45:46.470Z,8.78
2022-10-26T02:48:14.446Z,9.15
2022-10-26T02:50:48.359Z,9.30
2022-10-26T02:53:38.143Z,9.35
2022-10-26T02:56:06.975Z,9.43
2022-10-26T03:03:58.785Z,10.51
2022-10-26T03:06:27.576Z,10.58
2022-10-26T03:08:56.159Z,10.73
2022-10-26T03:11:23.303Z,10.80
2022-10-26T03:13:51.107Z,10.87
2022-10-26T03:16:21.306Z,11.03
2022-10-26T03:18:52.196Z,11.18
2022-10-26T03:21:21.032Z,11.23
2022-10-26T03:23:48.363Z,11.23
2022-10-26T03:26:21.471Z,11.31
2022-10-26T03:28:48.786Z,11.42
2022-10-26T03:31:23.735Z,11.53
2022-10-26T03:33:51.345Z,11.55
2022-10-26T03:36:21.644Z,11.55
2022-10-26T03:38:48.437Z,11.60
2022-10-26T03:41:19.216Z,11.56
2022-10-26T03:43:51.752Z,11.68
2022-10-26T03:46:20.015Z,11.73
2022-10-26T03:48:56.524Z,11.80
2022-10-26T03:57:00.171Z,11.73
2022-10-26T04:04:58.155Z,11.87
2022-10-26T04:07:24.787Z,11.85
2022-10-26T04:09:51.613Z,11.93
2022-10-26T04:12:20.226Z,11.89
2022-10-26T04:17:26.697Z,11.83
2022-10-26T04:19:53.666Z,11.85
2022-10-26T04:22:20.387Z,11.82
2022-10-26T04:30:25.746Z,11.85
2022-10-26T04:32:53.108Z,11.79
2022-10-26T04:35:26.680Z,11.79
2022-10-26T04:40:47.724Z,11.90
2022-10-26T04:43:14.565Z,11.86
2022-10-26T04:45:43.814Z,11.80
2022-10-26T04:48:16.796Z,11.76
2022-10-26T04:50:49.531Z,11.74
2022-10-26T04:53:16.620Z,11.67
2022-10-26T04:58:24.495Z,11.64
2022-10-26T05:00:53.167Z,11.68
2022-10-26T05:03:21.953Z,11.70
2022-10-26T05:05:48.798Z,11.73
2022-10-26T05:08:16.191Z,11.71
2022-10-26T05:10:51.622Z,11.65
2022-10-26T05:16:00.736Z,11.78
2022-10-26T05:21:12.823Z,11.77
2022-10-26T05:23:42.062Z,11.75
2022-10-26T05:26:12.200Z,11.77
2022-10-26T05:28:40.395Z,11.77
2022-10-26T05:31:07.818Z,11.84
2022-10-26T05:33:36.598Z,11.86
2022-10-26T05:36:07.939Z,11.83
2022-10-26T05:41:21.751Z,11.87
2022-10-26T05:43:48.950Z,11.91
2022-10-26T05:46:30.232Z,11.86
2022-10-26T05:49:01.409Z,11.90
2022-10-26T05:51:30.348Z,11.87
2022-10-26T05:54:12.939Z,11.91
2022-10-26T05:56:42.344Z,11.90
2022-10-26T06:01:44.344Z,11.93
2022-10-26T06:04:26.678Z,11.94
2022-10-26T06:06:58.105Z,11.98
2022-10-26T06:09:27.750Z,12.00
2022-10-26T06:11:56.664Z,11.99
2022-10-26T06:17:27.384Z,12.05
2022-10-26T06:20:23.304Z,12.20
2022-10-26T06:25:50.739Z,12.25
2022-10-26T06:28:20.790Z,12.22
2022-10-26T06:33:33.743Z,12.40
2022-10-26T06:36:06.542Z,12.41
2022-10-26T06:41:19.559Z,12.64
2022-10-26T06:43:47.064Z,12.64
2022-10-26T06:49:29.772Z,12.73
2022-10-26T06:54:26.345Z,12.96
2022-10-26T07:02:20.428Z,13.15
2022-10-26T07:04:47.932Z,13.20
2022-10-26T07:07:24.566Z,13.35
2022-10-26T07:12:33.308Z,13.46
2022-10-26T07:15:02.673Z,13.49
2022-10-26T07:17:32.287Z,13.50
2022-10-26T07:20:06.899Z,13.45
2022-10-26T07:22:54.215Z,13.46
2022-10-26T07:25:24.335Z,13.48
2022-10-26T07:28:05.028Z,13.42
2022-10-26T07:33:17.344Z,13.48
2022-10-26T07:35:44.293Z,13.51
2022-10-26T07:38:11.260Z,13.47
2022-10-26T07:40:43.257Z,13.48
2022-10-26T07:43:13.668Z,13.51
2022-10-26T07:48:27.315Z,13.49
2022-10-26T07:50:54.212Z,13.53
2022-10-26T07:53:26.695Z,13.50
2022-10-26T07:55:59.995Z,13.50
2022-10-26T07:58:27.561Z,13.48
2022-10-26T08:01:06.176Z,13.46
2022-10-26T08:03:37.049Z,13.49
2022-10-26T08:06:06.030Z,13.42
2022-10-26T08:08:33.165Z,13.50
2022-10-26T08:11:00.488Z,13.49
2022-10-26T08:13:27.237Z,13.46
2022-10-26T08:16:04.089Z,13.33
2022-10-26T08:18:30.734Z,13.43
2022-10-26T08:21:10.292Z,13.62
2022-10-26T08:23:38.574Z,13.71
2022-10-26T08:26:06.222Z,13.83
2022-10-26T08:28:38.051Z,14.01
2022-10-26T08:31:05.341Z,14.28
2022-10-26T08:33:32.147Z,14.39
2022-10-26T08:36:00.115Z,14.45
2022-10-26T08:38:26.967Z,14.09
2022-10-26T08:40:54.232Z,14.20
2022-10-26T08:43:31.477Z,14.85
2022-10-26T08:45:59.707Z,15.74
2022-10-26T08:48:32.247Z,15.91
2022-10-26T08:51:09.071Z,16.68
2022-10-26T08:53:45.930Z,17.52
2022-10-26T08:56:19.386Z,17.72
2022-10-26T08:58:47.735Z,16.90
2022-10-26T09:01:14.683Z,17.90
2022-10-26T09:03:42.667Z,18.61
2022-10-26T09:06:20.784Z,18.89
2022-10-26T09:08:59.230Z,18.72
2022-10-26T09:11:28.813Z,19.17
2022-10-26T09:14:09.573Z,19.46
2022-10-26T09:16:39.157Z,20.30
2022-10-26T09:19:11.541Z,21.10
2022-10-26T09:32:50.829Z,23.27
2022-10-26T09:35:21.812Z,22.74
2022-10-26T09:37:57.470Z,21.71
2022-10-26T09:40:29.646Z,21.07
2022-10-26T09:45:49.018Z,22.78
2022-10-26T09:48:30.798Z,24.16
2022-10-26T09:51:10.573Z,23.29
2022-10-26T09:53:38.473Z,23.98
2022-10-26T09:58:54.988Z,25.49
2022-10-26T10:04:20.859Z,24.78
2022-10-26T10:06:56.720Z,25.73
2022-10-26T10:12:09.088Z,25.50
2022-10-26T10:14:47.072Z,26.31
2022-10-26T10:17:22.194Z,26.73
2022-10-26T10:19:51.678Z,26.15
2022-10-26T10:22:38.556Z,26.40
2022-10-26T10:27:59.816Z,26.96
2022-10-26T10:30:31.693Z,25.09
2022-10-26T10:33:15.012Z,24.95
2022-10-26T10:35:49.592Z,24.61
2022-10-26T10:38:17.797Z,24.57
2022-10-26T10:40:49.771Z,24.58
2022-10-26T10:43:16.946Z,24.76
2022-10-26T10:45:59.923Z,26.73
2022-10-26T10:48:29.493Z,28.43
2022-10-26T10:51:07.819Z,27.72
2022-10-26T10:53:38.077Z,27.01
2022-10-26T10:56:11.527Z,26.97
2022-10-26T10:58:54.349Z,27.71
2022-10-26T11:01:26.993Z,27.73
2022-10-26T11:04:02.609Z,28.41
2022-10-26T11:06:29.330Z,29.09
2022-10-26T11:09:10.004Z,29.32
2022-10-26T11:11:41.732Z,28.82
2022-10-26T11:14:12.710Z,28.93
2022-10-26T11:16:42.825Z,27.74
2022-10-26T11:19:17.296Z,29.65
2022-10-26T11:21:44.634Z,29.28
2022-10-26T11:24:14.154Z,30.83
2022-10-26T11:29:38.248Z,32.54
2022-10-26T11:32:09.326Z,31.78
2022-10-26T11:34:36.138Z,33.05
2022-10-26T11:39:58.663Z,32.55
2022-10-26T11:42:26.780Z,32.43
2022-10-26T11:44:56.144Z,32.55
2022-10-26T11:47:24.648Z,33.10
2022-10-26T11:49:58.122Z,32.91
2022-10-26T11:52:37.011Z,33.17
2022-10-26T11:57:55.335Z,31.32
2022-10-26T12:00:22.737Z,30.80
2022-10-26T12:02:54.446Z,29.67
2022-10-26T12:11:19.111Z,30.22
2022-10-26T12:13:48.253Z,30.64
2022-10-26T12:50:24.517Z,26.16
2022-10-26T12:52:53.361Z,25.38
2022-10-26T12:55:21.097Z,24.44
2022-10-26T12:58:01.691Z,23.73
2022-10-26T13:00:29.310Z,23.19
2022-10-26T13:03:00.088Z,22.79
2022-10-26T13:05:32.872Z,22.60
2022-10-26T13:08:09.982Z,22.38
2022-10-26T13:10:37.393Z,21.90
2022-10-26T13:13:05.695Z,21.66
2022-10-26T13:15:39.806Z,21.23
2022-10-26T13:18:06.973Z,21.26
2022-10-26T13:20:34.237Z,20.91
2022-10-26T13:25:29.608Z,19.92
2022-10-26T13:30:46.292Z,19.60
2022-10-26T13:33:20.832Z,19.51
2022-10-26T13:35:47.671Z,19.50
2022-10-26T13:38:24.793Z,19.71
2022-10-26T13:40:55.645Z,19.75
2022-10-26T13:43:25.290Z,19.85
2022-10-26T13:46:13.162Z,19.72
2022-10-26T13:48:42.215Z,19.58
2022-10-26T13:51:36.393Z,19.64
2022-10-26T13:54:04.670Z,19.36
2022-10-26T13:56:33.096Z,19.12
2022-10-26T14:01:46.924Z,18.96
2022-10-26T14:07:00.360Z,19.25
2022-10-26T14:09:27.510Z,19.28
2022-10-26T14:12:00.352Z,19.38
2022-10-26T14:17:25.435Z,19.41
2022-10-26T14:19:57.460Z,19.10
2022-10-26T14:25:35.935Z,18.81
2022-10-26T14:28:22.779Z,18.84
2022-10-26T14:30:49.573Z,18.66
2022-10-26T14:33:21.407Z,18.59
2022-10-26T14:49:23.249Z,18.20
2022-10-26T14:51:50.196Z,18.02
2022-10-26T14:54:21.174Z,17.96
2022-10-26T14:59:32.834Z,17.71
2022-10-26T15:01:59.635Z,17.59
2022-10-26T15:04:34.209Z,17.44
2022-10-26T15:07:13.172Z,17.31
2022-10-26T15:09:43.809Z,17.23
2022-10-26T15:12:20.702Z,17.14
2022-10-26T15:17:36.736Z,17.02
2022-10-26T15:20:08.885Z,16.96
2022-10-26T15:28:24.271Z,16.71
2022-10-26T15:31:04.869Z,16.59
2022-10-26T15:36:09.055Z,16.34
2022-10-26T15:38:35.893Z,16.28
2022-10-26T15:41:03.876Z,16.23
2022-10-26T15:43:30.711Z,16.14
2022-10-26T15:45:58.164Z,16.05
2022-10-26T15:48:29.325Z,15.94
2022-10-26T15:50:56.245Z,15.87
2022-10-26T15:53:23.904Z,15.75
2022-10-26T15:55:51.794Z,15.66
2022-10-26T15:58:18.719Z,15.54
2022-10-26T16:00:45.687Z,15.45
2022-10-26T16:03:23.471Z,15.40
2022-10-26T16:06:00.349Z,15.38
2022-10-26T16:08:27.666Z,15.35
2022-10-26T16:10:55.703Z,15.26
2022-10-26T16:13:22.597Z,15.18
2022-10-26T16:15:49.351Z,15.18
2022-10-26T16:18:16.114Z,15.08
2022-10-26T16:20:45.059Z,14.97
2022-10-26T16:23:13.802Z,14.87
2022-10-26T16:25:41.872Z,14.80
2022-10-26T16:28:09.572Z,14.76
2022-10-26T16:30:37.079Z,14.64
2022-10-26T16:33:03.914Z,14.57
2022-10-26T16:35:30.644Z,14.51
2022-10-26T16:37:57.278Z,14.44
2022-10-26T16:40:24.087Z,14.38
2022-10-26T16:42:51.061Z,14.28
2022-10-26T16:45:18.081Z,14.25
2022-10-26T16:47:44.838Z,14.28
2022-10-26T16:50:12.087Z,14.32
2022-10-26T16:52:39.005Z,14.27
2022-10-26T16:55:06.635Z,14.23
2022-10-26T16:57:33.401Z,14.19
2022-10-26T17:00:00.115Z,14.18
2022-10-26T17:02:26.857Z,14.11
2022-10-26T17:04:53.535Z,14.07
2022-10-26T17:07:20.115Z,14.01
2022-10-26T17:09:46.643Z,13.96
2022-10-26T17:12:13.417Z,13.93
2022-10-26T17:14:40.232Z,13.78
2022-10-26T17:17:06.860Z,13.63
2022-10-26T17:19:33.490Z,13.51
2022-10-26T17:22:02.688Z,13.41
2022-10-26T17:24:31.691Z,13.25
2022-10-26T17:26:59.714Z,13.15
2022-10-26T17:29:26.509Z,12.98
2022-10-26T17:31:53.167Z,12.92
2022-10-26T17:34:19.784Z,12.81
2022-10-26T17:36:46.341Z,12.67
2022-10-26T17:39:13.010Z,12.54
2022-10-26T17:41:39.690Z,12.39
2022-10-26T17:44:06.398Z,12.31
2022-10-26T17:46:34.142Z,12.19
2022-10-26T17:49:01.074Z,12.08
2022-10-26T17:51:28.653Z,12.01
2022-10-26T17:53:55.460Z,11.97
2022-10-26T17:56:26.481Z,11.81
2022-10-26T17:59:00.236Z,11.87
2022-10-26T18:01:35.319Z,11.80
2022-10-26T18:06:46.296Z,11.69
2022-10-26T18:09:13.687Z,11.71
2022-10-26T18:11:41.647Z,11.59
2022-10-26T18:14:09.119Z,11.52
2022-10-26T18:16:37.356Z,11.54
2022-10-26T18:19:05.259Z,11.56
2022-10-26T18:21:32.850Z,11.52
2022-10-26T18:23:59.596Z,11.55
2022-10-26T18:26:28.926Z,11.55
2022-10-26T18:28:56.141Z,11.61
2022-10-26T18:31:23.201Z,11.62
2022-10-26T18:33:50.125Z,11.62
2022-10-26T18:36:18.023Z,11.74
2022-10-26T18:38:44.627Z,11.82
2022-10-26T18:41:11.854Z,11.91
2022-10-26T18:43:42.151Z,11.99
2022-10-26T18:46:09.928Z,12.10
2022-10-26T18:48:36.719Z,12.12
2022-10-26T18:51:04.116Z,12.22
2022-10-26T18:53:32.203Z,12.23
2022-10-26T18:56:02.359Z,12.20
2022-10-26T18:58:29.748Z,12.11
2022-10-26T19:01:04.416Z,12.05
2022-10-26T19:03:30.978Z,11.95
2022-10-26T19:05:57.503Z,11.89
2022-10-26T19:08:27.814Z,11.77
2022-10-26T19:10:54.876Z,11.52
2022-10-26T19:13:21.545Z,11.39
2022-10-26T19:15:48.083Z,11.35
2022-10-26T19:18:14.736Z,11.31
2022-10-26T19:20:42.774Z,11.27
2022-10-26T19:23:11.748Z,11.32
2022-10-26T19:25:38.286Z,11.37
2022-10-26T19:28:04.860Z,11.43
2022-10-26T19:30:33.364Z,11.48
2022-10-26T19:33:00.267Z,11.56
2022-10-26T19:35:26.908Z,11.63
2022-10-26T19:37:53.458Z,11.70
2022-10-26T19:40:19.982Z,11.74
2022-10-26T19:42:46.690Z,11.87
2022-10-26T19:45:13.360Z,11.89
2022-10-26T19:47:40.084Z,11.99
2022-10-26T19:50:07.328Z,12.07
2022-10-26T19:52:33.921Z,12.06
2022-10-26T19:55:00.519Z,12.18
2022-10-26T19:57:27.041Z,12.28
2022-10-26T19:59:53.730Z,12.40
2022-10-26T20:02:20.410Z,12.48
2022-10-26T20:04:47.067Z,12.56
2022-10-26T20:07:15.365Z,12.67
2022-10-26T20:09:42.146Z,12.76
2022-10-26T20:12:12.849Z,12.79
2022-10-26T20:14:39.880Z,12.88
2022-10-26T20:17:07.020Z,12.87
2022-10-26T20:19:33.628Z,12.94
2022-10-26T20:22:00.277Z,12.87
2022-10-26T20:24:26.984Z,12.81
2022-10-26T20:26:53.631Z,12.68
2022-10-26T20:29:21.764Z,12.56
2022-10-26T20:31:51.506Z,12.43
2022-10-26T20:34:20.404Z,12.36
2022-10-26T20:36:47.191Z,12.32
2022-10-26T20:39:14.031Z,12.34
2022-10-26T20:41:41.513Z,12.25
2022-10-26T20:44:12.736Z,12.15
2022-10-26T20:46:39.638Z,12.07
2022-10-26T20:49:07.623Z,12.04
2022-10-26T20:51:51.975Z,11.98
2022-10-26T20:54:28.726Z,11.97
2022-10-26T20:56:55.949Z,12.03
2022-10-26T20:59:25.307Z,11.98
2022-10-26T21:01:51.993Z,11.92
2022-10-26T21:04:18.627Z,11.95
2022-10-26T21:06:45.311Z,11.95
2022-10-26T21:09:11.899Z,11.93
2022-10-26T21:11:38.563Z,11.94
2022-10-26T21:14:06.543Z,11.92
2022-10-26T21:16:33.166Z,11.90
2022-10-26T21:19:00.407Z,11.83
2022-10-26T21:21:27.052Z,11.77
2022-10-26T21:23:53.630Z,11.83
2022-10-26T21:26:20.192Z,11.80
2022-10-26T21:28:46.741Z,11.75
2022-10-26T21:31:17.351Z,11.69
2022-10-26T21:33:44.220Z,11.62
2022-10-26T21:36:14.300Z,11.60
2022-10-26T21:38:41.528Z,11.56
2022-10-26T21:41:16.741Z,11.54
2022-10-26T21:43:49.224Z,11.50
2022-10-26T21:46:16.663Z,11.39
2022-10-26T21:48:43.430Z,11.21
2022-10-26T21:51:17.269Z,11.16
2022-10-26T21:53:43.954Z,11.10
2022-10-26T21:56:17.671Z,11.07
2022-10-26T21:58:44.578Z,11.09
2022-10-26T22:01:15.261Z,11.04
2022-10-26T22:03:42.415Z,10.99
2022-10-26T22:06:09.663Z,10.92
2022-10-26T22:08:36.879Z,10.83
2022-10-26T22:11:08.598Z,10.74
2022-10-26T22:13:37.151Z,10.71
2022-10-26T22:16:07.916Z,10.70
2022-10-26T22:18:34.911Z,10.64
2022-10-26T22:21:01.615Z,10.64
2022-10-26T22:23:28.275Z,10.64
2022-10-26T22:25:54.924Z,10.54
2022-10-26T22:28:21.515Z,10.41
2022-10-26T22:30:48.669Z,10.34
2022-10-26T22:33:15.935Z,10.32
2022-10-26T22:35:43.354Z,10.30
2022-10-26T22:38:12.445Z,10.28
2022-10-26T22:40:39.208Z,10.34
2022-10-26T22:43:06.843Z,10.36
2022-10-26T22:45:33.659Z,10.30
2022-10-26T22:48:00.426Z,10.15
2022-10-26T22:50:27.470Z,10.07
2022-10-26T22:52:54.444Z,10.01
2022-10-26T22:55:21.359Z,9.98
2022-10-26T22:57:48.786Z,9.97
2022-10-26T23:00:15.913Z,9.99
2022-10-26T23:02:42.753Z,10.06
2022-10-26T23:05:09.910Z,10.12
2022-10-26T23:07:37.011Z,10.07
2022-10-26T23:10:04.347Z,9.90
2022-10-26T23:12:31.029Z,9.79
2022-10-26T23:14:57.710Z,9.71
2022-10-26T23:17:24.558Z,9.63
2022-10-26T23:19:51.132Z,9.64
2022-10-26T23:22:17.684Z,9.61
2022-10-26T23:24:44.443Z,9.56
2022-10-26T23:27:11.172Z,9.51
2022-10-26T23:29:37.893Z,9.45
2022-10-26T23:32:04.827Z,9.40
2022-10-26T23:34:31.927Z,9.37
2022-10-26T23:36:59.190Z,9.35
2022-10-26T23:39:28.353Z,9.33
2022-10-26T23:41:55.441Z,9.33
2022-10-26T23:44:22.336Z,9.33
2022-10-26T23:46:49.281Z,9.31
2022-10-26T23:49:16.252Z,9.36
2022-10-26T23:51:43.216Z,9.39
2022-10-26T23:54:09.899Z,9.36
2022-10-26T23:56:36.853Z,9.31
2022-10-26T23:59:07.725Z,9.35
